FZSD weather

Sandoa Airport
Sandoa, Katanga Province, Congo (Kinshasa)

Public forecast

Using degrees Celsius for public forecast. Weather courtesy of forecast.io.

METAR (pilot weather report)

Report is more than 6 hours old.

Closest report is Saurimo Airport, 143.2 nm (265.1 km) W. Retrieved 2019/04/21 15:00 UTC (15 hours ago):

FNSA 211500Z 09005KT 9999 FEW033 30/19 Q1016

TAF (pilot weather forecast)

Forecast is more than 12 hours old.

Closest forecast is Saurimo Airport, 143.2 nm (265.1 km) W. Retrieved 2019/04/21 00:00 UTC (1 day ago):

TAF FNSA 212300Z 2200/2212 31004KT 8000 FEW015 FEW030CB BKN040 TEMPO 2203/2207 25007KT 9000 FEW012 FEW018CB BKN023 BECMG 2209/2211 19005KT 7000 -RADZ SCT010 FEW018CB BKN025